Time;durP1;ratioP1;P1;durP2;ratioP2;P2;SDS_P1;SDS_P2;PMS_P1;PMS_P2;Temp;Humidity;BMP_temperature;BMP_pressure;BME280_temperature;BME280_humidity;BME280_pressure;Samples;Min_cycle;Max_cycle;Signal;HPM_P1;HPM_P2
2021/08/02 00:01:57;;;;;;;16.65;14.98;;;;;;;24.83;66.93;99524.52;1594482;88;21067;-79
2021/08/02 00:04:30;;;;;;;16.35;14.75;;;;;;;24.89;66.75;99527.95;1602271;88;21114;-78
2021/08/02 00:07:06;;;;;;;16.20;14.03;;;;;;;24.93;66.59;99530.88;1604155;88;21060;-77
2021/08/02 00:09:35;;;;;;;16.15;14.63;;;;;;;24.92;66.75;99545.07;1615347;88;21037;-78
2021/08/02 00:12:17;;;;;;;16.02;14.43;;;;;;;24.91;66.77;99548.09;1607078;89;21704;-77
2021/08/02 00:14:46;;;;;;;19.27;15.25;;;;;;;24.86;66.96;99540.81;1591193;88;21108;-78
2021/08/02 00:17:12;;;;;;;14.65;13.35;;;;;;;24.82;67.07;99552.07;1606727;88;21093;-78
2021/08/02 00:19:41;;;;;;;15.95;13.93;;;;;;;24.81;67.19;99558.65;1606396;88;21049;-78
2021/08/02 00:22:08;;;;;;;14.13;12.88;;;;;;;24.80;67.31;99563.83;1606161;88;21100;-78
2021/08/02 00:24:35;;;;;;;14.13;12.90;;;;;;;24.37;67.33;99494.03;1605735;88;21064;-78
2021/08/02 00:29:08;;;;;;;18.73;12.85;;;;;;;24.86;67.34;99534.00;1871833;75;22709;-50
2021/08/02 00:31:37;;;;;;;14.58;12.33;;;;;;;24.81;67.44;99540.94;1852822;77;21061;-50
2021/08/02 00:34:05;;;;;;;15.20;13.28;;;;;;;24.84;67.41;99534.86;1826963;76;21120;-50
2021/08/02 00:36:42;;;;;;;14.05;12.82;;;;;;;24.81;67.35;99540.94;1820634;78;21058;-50
2021/08/02 00:39:39;;;;;;;18.37;14.53;;;;;;;24.75;67.60;99542.95;1817397;77;21045;-50
2021/08/02 00:42:46;;;;;;;15.48;14.03;;;;;;;24.67;67.81;99533.53;1791168;77;21087;-51
2021/08/02 00:45:20;;;;;;;14.93;13.08;;;;;;;24.60;67.95;99514.08;1810643;78;20970;-51
2021/08/02 00:48:09;;;;;;;14.98;13.35;;;;;;;24.49;68.29;99506.61;1801524;77;21186;-50
2021/08/02 00:50:45;;;;;;;15.18;12.30;;;;;;;24.45;68.66;99509.69;1781923;79;21045;-50
2021/08/02 00:53:20;;;;;;;12.85;11.70;;;;;;;24.56;68.41;99515.77;1704061;83;21150;-50
2021/08/02 00:55:52;;;;;;;15.08;13.60;;;;;;;24.57;68.48;99507.06;1728487;81;20977;-50
2021/08/02 00:58:22;;;;;;;13.43;12.15;;;;;;;24.50;68.67;99501.97;1699833;83;21558;-50
2021/08/02 01:00:52;;;;;;;15.05;13.72;;;;;;;24.42;68.93;99493.94;1682091;84;21037;-48
2021/08/02 01:03:20;;;;;;;13.93;12.15;;;;;;;24.35;68.97;99491.36;1687380;83;21603;-49
2021/08/02 01:05:52;;;;;;;14.03;12.88;;;;;;;24.34;69.36;99489.77;1643045;83;83468;-51
2021/08/02 01:08:32;;;;;;;15.78;13.72;;;;;;;24.38;69.17;99481.23;1640217;85;21040;-51
2021/08/02 01:11:07;;;;;;;15.43;13.15;;;;;;;24.39;69.23;99485.03;1670514;84;21104;-50
2021/08/02 01:13:38;;;;;;;14.10;12.55;;;;;;;24.37;69.42;99478.25;1669783;84;21160;-51
2021/08/02 01:16:08;;;;;;;16.65;13.58;;;;;;;24.39;69.28;99475.50;1681225;84;21072;-50
2021/08/02 01:18:39;;;;;;;14.20;12.73;;;;;;;24.40;69.20;99467.56;1670896;84;21051;-50
2021/08/02 01:21:09;;;;;;;13.80;12.25;;;;;;;24.38;69.23;99459.45;1682970;84;21027;-51
2021/08/02 01:23:39;;;;;;;14.35;13.05;;;;;;;24.39;69.21;99459.16;1695592;82;22309;-50
2021/08/02 01:26:45;;;;;;;14.05;12.82;;;;;;;24.44;69.12;99461.76;1696967;83;21063;-50
2021/08/02 01:30:08;;;;;;;13.43;12.05;;;;;;;24.45;69.01;99466.11;1690746;83;21053;-51
2021/08/02 01:32:35;;;;;;;17.60;14.70;;;;;;;24.42;69.12;99457.73;1701730;83;21544;-51
2021/08/02 01:35:09;;;;;;;22.10;13.95;;;;;;;24.29;69.42;99454.69;1704777;82;20993;-51
2021/08/02 01:37:37;;;;;;;14.55;12.73;;;;;;;24.28;69.44;99451.73;1689326;84;21160;-50
2021/08/02 01:40:06;;;;;;;24.47;13.75;;;;;;;24.27;69.54;99458.83;1724628;82;21056;-48
2021/08/02 01:42:35;;;;;;;16.00;13.80;;;;;;;24.25;69.75;99466.49;1712389;82;21076;-49
2021/08/02 01:45:06;;;;;;;15.63;14.23;;;;;;;24.26;69.65;99464.84;1703160;82;21259;-49
2021/08/02 01:47:41;;;;;;;15.05;13.50;;;;;;;24.28;69.78;99463.98;1717351;82;21417;-48
2021/08/02 01:50:35;;;;;;;15.45;13.93;;;;;;;24.31;69.82;99452.23;1692383;82;21212;-49
2021/08/02 01:53:18;;;;;;;14.53;13.03;;;;;;;24.26;69.94;99449.03;1688059;83;21099;-49
2021/08/02 01:55:57;;;;;;;14.60;13.13;;;;;;;24.24;70.06;99441.72;1697457;82;20986;-48
2021/08/02 01:58:26;;;;;;;17.17;14.80;;;;;;;24.18;70.48;99445.09;1705348;82;21117;-49
2021/08/02 02:01:01;;;;;;;17.07;15.38;;;;;;;24.14;70.62;99444.08;1722538;82;21004;-49
2021/08/02 02:03:30;;;;;;;14.63;13.40;;;;;;;24.00;71.20;99433.19;1710114;82;21140;-49
2021/08/02 02:06:07;;;;;;;16.40;14.65;;;;;;;23.93;71.54;99431.96;1709275;82;21290;-49
2021/08/02 02:08:51;;;;;;;14.40;13.03;;;;;;;23.88;71.71;99450.00;1687918;82;21601;-51
2021/08/02 02:11:20;;;;;;;15.98;14.23;;;;;;;23.89;71.79;99439.91;1694160;82;20989;-49
2021/08/02 02:13:52;;;;;;;17.27;14.58;;;;;;;23.91;71.86;99443.14;1711627;84;21080;-50
2021/08/02 02:16:22;;;;;;;15.28;14.07;;;;;;;23.89;72.01;99433.11;1711291;83;21049;-50
2021/08/02 02:18:54;;;;;;;16.30;14.45;;;;;;;23.84;72.19;99428.55;1714312;82;21064;-49
2021/08/02 02:21:27;;;;;;;15.28;13.45;;;;;;;23.78;72.44;99420.20;1727622;82;21714;-49
2021/08/02 02:23:56;;;;;;;16.07;13.72;;;;;;;23.70;72.79;99412.16;1665599;85;21013;-50
2021/08/02 02:26:27;;;;;;;16.12;13.58;;;;;;;23.67;72.91;99416.03;1705071;84;21053;-50
2021/08/02 02:28:52;;;;;;;16.65;15.15;;;;;;;23.62;73.21;99418.83;1685481;84;21340;-49
2021/08/02 02:31:21;;;;;;;16.32;14.07;;;;;;;23.54;73.54;99411.36;1675593;84;21070;-51
2021/08/02 02:33:50;;;;;;;15.38;14.07;;;;;;;23.52;73.74;99411.09;1699917;83;21038;-51
2021/08/02 02:36:19;;;;;;;15.08;13.65;;;;;;;23.56;73.61;99418.11;1692416;83;21147;-50
2021/08/02 02:38:50;;;;;;;15.10;13.60;;;;;;;23.65;73.27;99427.77;1695629;83;21034;-50
2021/08/02 02:41:19;;;;;;;15.23;13.80;;;;;;;23.78;72.85;99427.56;1680524;83;21073;-49
2021/08/02 02:43:49;;;;;;;15.72;14.18;;;;;;;23.88;72.42;99432.31;1690288;83;21030;-49
2021/08/02 02:46:19;;;;;;;16.62;15.08;;;;;;;23.87;72.29;99440.20;1682293;83;21043;-48
2021/08/02 02:48:49;;;;;;;14.55;13.13;;;;;;;23.91;72.26;99451.30;1660759;82;21836;-48
2021/08/02 02:51:17;;;;;;;16.42;14.68;;;;;;;23.93;72.19;99459.98;1690267;83;21043;-48
2021/08/02 02:53:47;;;;;;;15.15;13.72;;;;;;;23.89;72.27;99467.92;1650835;85;21024;-49
2021/08/02 02:56:16;;;;;;;15.55;13.95;;;;;;;23.89;72.17;99471.20;1659852;85;21059;-49
2021/08/02 02:58:43;;;;;;;14.68;13.28;;;;;;;23.89;72.08;99469.84;1673145;84;21107;-49
2021/08/02 03:01:18;;;;;;;15.40;14.10;;;;;;;23.91;71.79;99473.08;1693443;83;21000;-49
2021/08/02 03:03:50;;;;;;;16.48;13.83;;;;;;;23.92;71.87;99475.23;1697323;83;21039;-49
2021/08/02 03:06:18;;;;;;;15.65;14.35;;;;;;;23.90;71.93;99466.83;1716622;83;21573;-49
2021/08/02 03:08:46;;;;;;;16.07;14.15;;;;;;;23.92;71.98;99468.44;1691852;83;21004;-49
2021/08/02 03:11:16;;;;;;;15.03;13.65;;;;;;;23.99;71.91;99457.97;1695705;83;21023;-49
2021/08/02 03:13:42;;;;;;;16.37;12.53;;;;;;;24.11;71.21;99466.48;1663665;84;21092;-50
2021/08/02 03:16:10;;;;;;;14.33;13.05;;;;;;;24.24;70.81;99468.95;1722262;82;21081;-50
2021/08/02 03:18:37;;;;;;;16.12;13.03;;;;;;;24.26;70.48;99468.92;1727825;82;21077;-49
2021/08/02 03:21:05;;;;;;;15.30;12.78;;;;;;;24.22;70.62;99482.89;1719184;82;21557;-49
2021/08/02 03:23:39;;;;;;;14.00;12.70;;;;;;;24.16;70.89;99478.62;1718876;82;21015;-49
2021/08/02 03:26:14;;;;;;;17.17;12.88;;;;;;;24.24;70.63;99485.28;1725420;82;21036;-50
2021/08/02 03:28:55;;;;;;;16.60;12.85;;;;;;;24.41;70.01;99473.81;1720857;82;21019;-50
2021/08/02 03:31:32;;;;;;;17.02;13.03;;;;;;;24.45;69.64;99474.84;1717476;82;21124;-50
2021/08/02 03:34:01;;;;;;;14.23;12.82;;;;;;;24.29;69.83;99479.19;1709177;82;21019;-50
2021/08/02 03:36:28;;;;;;;14.03;12.68;;;;;;;24.17;70.30;99478.89;1717079;82;21050;-50
2021/08/02 03:38:56;;;;;;;14.13;12.78;;;;;;;24.17;70.35;99488.41;1717533;82;21478;-50
2021/08/02 03:41:24;;;;;;;17.90;14.30;;;;;;;24.20;70.23;99489.72;1718566;82;21021;-50
2021/08/02 03:43:52;;;;;;;13.60;12.45;;;;;;;24.39;69.77;99494.56;1716930;82;21538;-49
2021/08/02 03:46:20;;;;;;;14.25;12.93;;;;;;;24.70;68.67;99493.19;1720302;81;22081;-50
2021/08/02 03:48:48;;;;;;;18.75;12.88;;;;;;;24.95;67.52;99486.41;1716930;82;21111;-50
2021/08/02 03:51:14;;;;;;;18.10;13.78;;;;;;;25.10;66.77;99483.34;1723449;82;21095;-49
2021/08/02 03:53:44;;;;;;;14.05;12.50;;;;;;;25.22;66.12;99474.63;1724364;81;21112;-48
2021/08/02 03:56:14;;;;;;;14.18;12.75;;;;;;;25.21;66.14;99462.92;1718836;82;21623;-49
2021/08/02 03:58:41;;;;;;;16.42;14.20;;;;;;;25.16;65.82;99455.41;1712853;82;21071;-50
2021/08/02 04:01:09;;;;;;;14.15;11.75;;;;;;;25.18;65.96;99455.34;1702666;82;21520;-50
2021/08/02 04:03:36;;;;;;;13.00;11.90;;;;;;;25.39;65.27;99448.09;1715545;82;20985;-50
2021/08/02 04:06:03;;;;;;;12.28;11.15;;;;;;;25.78;63.95;99441.95;1713910;82;21109;-49
2021/08/02 04:08:29;;;;;;;12.40;11.20;;;;;;;26.18;62.95;99433.86;1703121;82;21065;-49
2021/08/02 04:10:55;;;;;;;12.07;10.85;;;;;;;26.54;61.64;99445.70;1714924;82;21050;-49
2021/08/02 04:13:22;;;;;;;16.60;11.45;;;;;;;26.76;60.08;99433.91;1704395;81;20947;-50
2021/08/02 04:15:49;;;;;;;11.55;10.45;;;;;;;26.73;60.12;99446.83;1689139;83;21093;-49
2021/08/02 04:18:17;;;;;;;10.63;9.63;;;;;;;26.64;60.08;99440.56;1689438;83;21098;-49
2021/08/02 04:20:45;;;;;;;12.10;10.63;;;;;;;26.45;60.63;99441.59;1700166;83;21008;-49
2021/08/02 04:23:12;;;;;;;12.03;10.93;;;;;;;26.42;60.72;99437.55;1701506;82;21581;-49
2021/08/02 04:25:39;;;;;;;11.48;10.65;;;;;;;26.61;60.34;99436.52;1721451;82;21033;-49
2021/08/02 04:28:05;;;;;;;11.53;10.55;;;;;;;26.72;59.93;99427.47;1718159;81;20985;-50
2021/08/02 04:30:31;;;;;;;12.40;9.85;;;;;;;26.58;60.26;99428.38;1742864;81;20997;-49
2021/08/02 04:32:57;;;;;;;12.23;10.95;;;;;;;26.23;61.02;99418.68;1735581;81;21076;-49
2021/08/02 04:35:23;;;;;;;10.65;9.65;;;;;;;25.81;62.16;99417.34;1725184;81;21031;-48
2021/08/02 04:37:49;;;;;;;11.48;10.43;;;;;;;25.52;63.33;99419.94;1728694;81;21443;-50
2021/08/02 04:40:16;;;;;;;11.78;10.45;;;;;;;25.26;64.46;99419.77;1732798;81;21040;-49
2021/08/02 04:42:42;;;;;;;11.68;10.50;;;;;;;25.07;65.34;99413.06;1730416;81;21132;-51
2021/08/02 04:45:10;;;;;;;11.48;10.48;;;;;;;24.92;66.06;99421.58;1730088;81;21049;-48
2021/08/02 04:47:36;;;;;;;12.00;10.95;;;;;;;24.79;66.90;99405.50;1734064;81;21670;-48
2021/08/02 04:50:05;;;;;;;12.35;11.08;;;;;;;24.78;67.01;99417.53;1731123;81;21075;-48
2021/08/02 04:52:32;;;;;;;11.97;10.98;;;;;;;24.72;67.47;99429.66;1738558;81;21082;-49
2021/08/02 04:54:58;;;;;;;12.37;11.18;;;;;;;24.68;67.73;99429.46;1740473;81;20971;-48
2021/08/02 04:57:24;;;;;;;12.73;11.63;;;;;;;24.63;67.90;99428.20;1716302;80;21002;-48
2021/08/02 04:59:50;;;;;;;13.78;12.45;;;;;;;24.55;68.38;99421.55;1719145;81;21177;-48
2021/08/02 05:02:16;;;;;;;14.35;11.40;;;;;;;24.41;68.88;99411.16;1728546;80;21579;-48
2021/08/02 05:04:42;;;;;;;14.87;10.95;;;;;;;24.41;69.05;99409.80;1730671;81;21032;-48
2021/08/02 05:07:09;;;;;;;13.45;12.10;;;;;;;24.43;69.04;99403.50;1714927;81;21201;-49
2021/08/02 05:09:34;;;;;;;12.88;11.63;;;;;;;24.47;68.90;99408.61;1733934;81;21027;-48
2021/08/02 05:12:01;;;;;;;13.75;10.68;;;;;;;24.53;68.84;99403.90;1740001;80;21599;-49
2021/08/02 05:14:28;;;;;;;16.27;12.07;;;;;;;24.56;68.58;99395.09;1733255;81;21056;-49
2021/08/02 05:16:54;;;;;;;13.43;12.03;;;;;;;24.60;68.40;99388.75;1716801;81;21015;-49
2021/08/02 05:19:20;;;;;;;14.95;11.97;;;;;;;24.62;68.49;99397.43;1711491;81;21066;-49
2021/08/02 05:21:47;;;;;;;16.20;12.53;;;;;;;24.63;68.44;99388.12;1736798;81;21034;-48
2021/08/02 05:24:13;;;;;;;16.82;12.20;;;;;;;24.66;68.39;99377.20;1737428;81;21060;-49
2021/08/02 05:26:40;;;;;;;12.95;11.68;;;;;;;24.70;68.26;99365.12;1731774;81;21131;-48
2021/08/02 05:29:07;;;;;;;13.13;11.80;;;;;;;24.76;68.01;99364.70;1737626;81;21052;-48
2021/08/02 05:31:34;;;;;;;12.73;11.68;;;;;;;24.81;67.83;99346.08;1730783;81;21052;-48
2021/08/02 05:34:00;;;;;;;12.40;11.30;;;;;;;24.81;68.04;99348.80;1735536;80;21044;-49
2021/08/02 05:36:27;;;;;;;13.00;11.85;;;;;;;24.87;68.28;99351.66;1758561;80;21004;-48
2021/08/02 05:38:53;;;;;;;13.10;11.70;;;;;;;24.86;68.09;99358.20;1755447;80;21565;-49
2021/08/02 05:41:19;;;;;;;16.20;12.20;;;;;;;24.84;68.15;99354.98;1772525;80;21011;-49
2021/08/02 05:43:46;;;;;;;13.00;11.55;;;;;;;24.83;68.13;99347.94;1752940;80;21032;-49
2021/08/02 05:46:12;;;;;;;13.05;11.63;;;;;;;24.87;67.74;99340.19;1743688;80;21024;-49
2021/08/02 05:48:39;;;;;;;15.72;12.28;;;;;;;24.90;67.72;99342.05;1732416;80;21577;-51
2021/08/02 05:51:05;;;;;;;12.05;11.00;;;;;;;24.90;67.60;99349.66;1732483;80;21026;-51
2021/08/02 05:53:32;;;;;;;13.55;12.10;;;;;;;24.96;67.42;99346.26;1733014;80;20937;-51
2021/08/02 05:55:58;;;;;;;13.00;11.70;;;;;;;24.95;67.24;99350.11;1756185;80;20961;-61
2021/08/02 05:58:24;;;;;;;11.85;10.75;;;;;;;24.80;66.99;99303.58;1757266;80;21024;-58
2021/08/02 06:00:50;;;;;;;13.22;10.20;;;;;;;25.14;66.78;99332.22;1740608;80;21076;-59
2021/08/02 06:03:17;;;;;;;13.68;11.83;;;;;;;25.21;66.32;99323.05;1755253;80;21807;-58
2021/08/02 06:05:43;;;;;;;12.82;11.57;;;;;;;25.33;66.08;99319.22;1748992;80;21048;-60
2021/08/02 06:08:09;;;;;;;12.50;11.50;;;;;;;25.49;65.72;99318.28;1746881;80;21056;-60
2021/08/02 06:10:35;;;;;;;13.68;12.28;;;;;;;25.62;65.43;99308.41;1743910;80;21559;-60
2021/08/02 06:13:02;;;;;;;12.10;10.95;;;;;;;25.74;64.75;99319.52;1746697;80;21553;-60
2021/08/02 06:15:28;;;;;;;14.07;11.43;;;;;;;25.84;64.63;99315.16;1741352;80;21063;-60
2021/08/02 06:17:54;;;;;;;12.63;11.55;;;;;;;25.97;64.11;99307.19;1754534;80;21000;-58
2021/08/02 06:20:21;;;;;;;13.13;11.18;;;;;;;26.09;63.81;99306.58;1737999;80;21012;-58
2021/08/02 06:22:47;;;;;;;14.93;11.63;;;;;;;26.14;63.68;99311.33;1744713;80;21004;-57
2021/08/02 06:25:13;;;;;;;12.60;11.30;;;;;;;26.15;63.51;99315.69;1690128;83;21080;-57
2021/08/02 06:27:40;;;;;;;13.18;11.83;;;;;;;26.18;63.65;99309.60;1689399;83;21514;-57
2021/08/02 06:30:08;;;;;;;13.75;12.55;;;;;;;26.21;63.50;99322.61;1713380;82;21573;-58
2021/08/02 06:32:35;;;;;;;12.05;10.68;;;;;;;26.26;63.18;99314.02;1659505;85;20984;-58
2021/08/02 06:35:01;;;;;;;17.42;11.93;;;;;;;26.30;63.05;99326.73;1684503;83;21507;-58
2021/08/02 06:37:28;;;;;;;13.70;12.37;;;;;;;26.33;63.22;99321.98;1692168;83;21046;-58
2021/08/02 06:39:55;;;;;;;15.72;12.43;;;;;;;26.45;63.13;99326.84;1684531;83;21591;-57
2021/08/02 06:42:21;;;;;;;12.85;11.73;;;;;;;26.60;62.71;99328.34;1687115;83;21098;-58
2021/08/02 06:44:47;;;;;;;11.12;9.95;;;;;;;26.77;62.32;99317.41;1680748;83;21121;-58
2021/08/02 06:47:13;;;;;;;15.55;11.22;;;;;;;26.88;62.04;99304.78;1676547;84;21125;-58
2021/08/02 06:49:39;;;;;;;13.15;11.25;;;;;;;26.94;61.18;99313.88;1690851;83;20990;-58
2021/08/02 06:52:06;;;;;;;14.78;11.65;;;;;;;26.95;61.05;99305.90;1692263;83;20955;-58
2021/08/02 06:54:32;;;;;;;12.18;9.53;;;;;;;27.05;60.87;99312.16;1687079;83;21036;-59
2021/08/02 06:56:58;;;;;;;12.60;10.05;;;;;;;27.21;59.64;99309.17;1694991;83;21038;-59
2021/08/02 06:59:24;;;;;;;9.90;9.05;;;;;;;27.55;58.94;99304.20;1684306;83;20967;-59
2021/08/02 07:01:52;;;;;;;10.18;9.08;;;;;;;27.94;56.84;99295.47;1679307;84;20957;-59
2021/08/02 07:04:18;;;;;;;10.32;9.43;;;;;;;28.23;55.26;99287.58;1681944;83;21102;-60
2021/08/02 07:06:44;;;;;;;9.00;8.20;;;;;;;28.52;55.56;99290.31;1690107;83;20975;-60
2021/08/02 07:09:11;;;;;;;12.88;8.65;;;;;;;28.74;53.68;99267.79;1678322;83;21615;-65
2021/08/02 07:11:38;;;;;;;13.15;7.40;;;;;;;29.16;53.34;99295.20;1683429;83;20963;-62
2021/08/02 07:14:04;;;;;;;8.55;7.83;;;;;;;29.39;51.95;99287.94;1691759;84;21653;-62
2021/08/02 07:16:30;;;;;;;8.33;7.33;;;;;;;29.43;51.44;99300.63;1688382;83;20965;-62
2021/08/02 07:18:56;;;;;;;11.00;7.50;;;;;;;29.45;51.33;99292.06;1685108;83;21068;-62
2021/08/02 07:21:22;;;;;;;11.68;8.28;;;;;;;29.51;50.94;99282.45;1686092;83;21508;-62
2021/08/02 07:23:49;;;;;;;11.50;7.97;;;;;;;29.44;50.05;99296.75;1689654;83;20968;-62
2021/08/02 07:26:15;;;;;;;12.47;7.40;;;;;;;29.20;50.44;99311.21;1684036;83;20982;-62
2021/08/02 07:28:43;;;;;;;9.25;7.85;;;;;;;28.97;51.10;99308.02;1686365;83;21061;-62
2021/08/02 07:31:09;;;;;;;9.43;8.43;;;;;;;28.85;51.42;99306.58;1712556;82;21596;-62
2021/08/02 07:33:37;;;;;;;7.95;7.28;;;;;;;28.77;51.91;99305.52;1727427;82;21084;-62
2021/08/02 07:36:04;;;;;;;10.55;8.23;;;;;;;28.73;52.10;99308.70;1720240;82;20966;-61
2021/08/02 07:38:31;;;;;;;10.25;7.87;;;;;;;28.74;52.12;99318.52;1707933;82;21055;-62
2021/08/02 07:40:57;;;;;;;8.40;7.58;;;;;;;28.79;51.97;99320.27;1720760;82;20990;-62
2021/08/02 07:43:23;;;;;;;8.13;7.42;;;;;;;28.85;50.99;99305.20;1713094;82;21009;-62
2021/08/02 07:45:49;;;;;;;7.85;7.17;;;;;;;28.87;50.67;99310.58;1727778;82;21085;-62
2021/08/02 07:48:15;;;;;;;17.62;7.72;;;;;;;28.89;50.47;99319.84;1709618;82;21207;-62
2021/08/02 07:50:43;;;;;;;8.80;7.97;;;;;;;28.95;50.87;99320.44;1718469;82;21165;-62
2021/08/02 07:53:09;;;;;;;26.10;7.53;;;;;;;29.06;50.11;99328.49;1690171;82;21526;-62
2021/08/02 07:55:37;;;;;;;13.30;6.72;;;;;;;29.13;49.21;99332.90;1715728;82;21029;-62
2021/08/02 07:58:09;;;;;;;12.45;7.05;;;;;;;29.10;49.45;99322.56;1736283;82;21554;-62
2021/08/02 08:00:36;;;;;;;12.15;6.95;;;;;;;29.16;49.29;99334.16;1728004;82;20981;-62
2021/08/02 08:03:02;;;;;;;7.22;6.55;;;;;;;29.27;48.43;99325.19;1722963;82;20981;-62
2021/08/02 08:05:29;;;;;;;6.97;6.28;;;;;;;29.32;48.44;99315.92;1707985;82;21413;-62
2021/08/02 08:07:57;;;;;;;10.28;6.55;;;;;;;29.43;48.53;99336.89;1721793;82;20970;-62
2021/08/02 08:10:26;;;;;;;8.68;6.42;;;;;;;29.53;48.53;99328.20;1717246;82;20974;-62
2021/08/02 08:12:54;;;;;;;13.25;6.55;;;;;;;29.68;47.83;99320.67;1716475;82;20930;-62
2021/08/02 08:15:23;;;;;;;11.80;6.95;;;;;;;29.86;47.55;99319.94;1728683;82;20989;-61
2021/08/02 08:17:52;;;;;;;13.38;6.80;;;;;;;30.00;46.39;99331.95;1720294;82;20978;-62
2021/08/02 08:20:22;;;;;;;6.22;5.65;;;;;;;30.11;46.83;99323.27;1712611;82;21585;-62
2021/08/02 08:22:53;;;;;;;11.55;5.45;;;;;;;30.26;46.91;99323.36;1717550;81;20945;-62
2021/08/02 08:25:19;;;;;;;6.40;5.67;;;;;;;30.49;45.37;99328.39;1710955;82;21015;-59
2021/08/02 08:27:46;;;;;;;8.95;5.22;;;;;;;30.70;44.18;99325.47;1717037;81;21570;-59
2021/08/02 08:30:14;;;;;;;7.53;4.83;;;;;;;30.76;42.96;99314.48;1701184;82;20984;-59
2021/08/02 08:32:40;;;;;;;6.15;4.40;;;;;;;30.79;41.64;99325.34;1714819;82;20950;-59
2021/08/02 08:35:09;;;;;;;6.15;4.15;;;;;;;30.78;41.41;99320.98;1710160;82;21029;-59
2021/08/02 08:37:37;;;;;;;4.20;3.58;;;;;;;30.79;41.25;99315.14;1722386;82;20977;-59
2021/08/02 08:40:06;;;;;;;7.05;4.00;;;;;;;30.82;40.03;99300.70;1710679;82;21009;-59
2021/08/02 08:42:33;;;;;;;11.15;3.90;;;;;;;30.89;39.88;99321.30;1715383;82;20977;-59
2021/08/02 08:45:01;;;;;;;7.28;3.08;;;;;;;30.99;39.60;99316.72;1721948;82;20989;-59
2021/08/02 08:47:27;;;;;;;5.00;3.22;;;;;;;31.03;37.93;99307.98;1717205;82;21654;-59
2021/08/02 08:49:53;;;;;;;7.12;3.47;;;;;;;31.04;38.11;99313.14;1720262;82;21069;-59
2021/08/02 08:52:19;;;;;;;3.77;3.52;;;;;;;31.09;38.76;99323.66;1712004;82;21048;-59
2021/08/02 08:54:46;;;;;;;11.73;3.30;;;;;;;31.20;38.94;99322.01;1714785;82;21041;-59
2021/08/02 08:57:13;;;;;;;4.25;3.10;;;;;;;31.32;38.62;99320.55;1705679;82;21009;-59
2021/08/02 08:59:51;;;;;;;7.28;2.92;;;;;;;31.44;38.04;99310.06;1701870;82;21018;-59
2021/08/02 09:02:29;;;;;;;9.23;3.08;;;;;;;31.54;37.21;99319.78;1705716;82;20961;-59
2021/08/02 09:05:00;;;;;;;9.10;3.60;;;;;;;31.48;37.42;99308.23;1705792;82;21453;-59
2021/08/02 09:07:43;;;;;;;6.10;3.12;;;;;;;31.45;37.41;99302.02;1709427;82;21061;-59
2021/08/02 09:10:17;;;;;;;13.10;2.83;;;;;;;31.31;37.55;99268.03;1710584;82;20985;-59
2021/08/02 09:12:59;;;;;;;11.38;3.15;;;;;;;31.50;36.97;99292.73;1732154;82;20989;-60
2021/08/02 09:15:44;;;;;;;4.17;2.98;;;;;;;31.38;36.96;99309.52;1717688;82;21021;-59
2021/08/02 09:18:23;;;;;;;3.72;3.42;;;;;;;31.40;37.85;99317.41;1723999;82;21033;-60
2021/08/02 09:21:03;;;;;;;6.72;3.12;;;;;;;31.44;37.36;99314.20;1714841;82;21467;-59
2021/08/02 09:23:30;;;;;;;6.35;3.02;;;;;;;31.49;37.63;99311.19;1718729;82;20974;-59
2021/08/02 09:26:01;;;;;;;4.37;3.20;;;;;;;31.58;38.04;99310.45;1711675;82;21023;-65
2021/08/02 09:28:29;;;;;;;2.67;2.58;;;;;;;31.63;37.64;99323.95;1711784;82;21339;-55
2021/08/02 09:30:59;;;;;;;4.53;3.35;;;;;;;31.56;37.96;99321.02;1705840;82;21381;-52
2021/08/02 09:33:33;;;;;;;8.00;3.87;;;;;;;31.55;37.69;99319.98;1717425;82;20973;-52
2021/08/02 09:36:02;;;;;;;4.25;2.72;;;;;;;31.56;38.12;99330.66;1726027;82;20958;-52
2021/08/02 09:38:28;;;;;;;3.72;3.15;;;;;;;31.61;37.96;99328.23;1707994;82;21463;-52
2021/08/02 09:40:57;;;;;;;3.52;2.65;;;;;;;31.67;37.80;99329.56;1719422;82;20970;-52
2021/08/02 09:43:28;;;;;;;4.15;3.10;;;;;;;31.72;37.68;99333.44;1713768;82;21040;-52
2021/08/02 09:46:03;;;;;;;8.45;3.42;;;;;;;31.77;37.70;99320.75;1718391;82;20994;-52
2021/08/02 09:48:42;;;;;;;4.20;2.80;;;;;;;31.87;37.76;99323.55;1718365;82;21425;-52
2021/08/02 09:51:19;;;;;;;2.83;2.10;;;;;;;32.00;37.59;99329.20;1723047;82;21433;-52
2021/08/02 09:53:50;;;;;;;5.30;2.98;;;;;;;32.12;36.93;99328.91;1716040;82;20969;-52
2021/08/02 09:56:19;;;;;;;7.47;3.17;;;;;;;31.98;37.37;99324.60;1720724;82;20966;-52
2021/08/02 09:58:47;;;;;;;4.72;2.77;;;;;;;31.89;37.47;99336.41;1703540;82;20993;-52
2021/08/02 10:01:17;;;;;;;7.12;3.35;;;;;;;31.79;37.75;99326.70;1723380;82;20934;-52
2021/08/02 10:03:44;;;;;;;4.25;3.05;;;;;;;31.75;37.75;99337.42;1725924;82;20959;-52
2021/08/02 10:06:13;;;;;;;5.67;3.17;;;;;;;31.76;38.01;99336.25;1704200;82;20926;-53
2021/08/02 10:08:42;;;;;;;4.83;3.15;;;;;;;31.81;38.16;99337.37;1710873;82;21024;-52
2021/08/02 10:11:09;;;;;;;5.22;3.22;;;;;;;31.88;38.21;99337.55;1698335;82;21022;-53
2021/08/02 10:13:42;;;;;;;4.17;2.85;;;;;;;31.95;37.85;99345.21;1710510;82;21001;-52
2021/08/02 10:16:14;;;;;;;12.60;3.67;;;;;;;31.90;37.95;99350.39;1704514;82;21018;-53
2021/08/02 10:18:50;;;;;;;6.00;3.55;;;;;;;31.83;37.94;99341.95;1702318;82;21359;-52
2021/08/02 10:21:17;;;;;;;3.92;2.98;;;;;;;31.75;38.35;99349.23;1718370;82;20982;-52
2021/08/02 10:23:43;;;;;;;6.53;2.80;;;;;;;31.75;38.79;99351.20;1716220;82;20989;-52
2021/08/02 10:26:29;;;;;;;4.95;3.15;;;;;;;31.78;38.97;99358.77;1722069;82;20982;-53
2021/08/02 10:28:59;;;;;;;3.95;2.72;;;;;;;31.78;38.63;99362.89;1703712;82;21023;-53
2021/08/02 10:31:27;;;;;;;4.72;2.50;;;;;;;31.73;38.85;99365.91;1711681;82;21000;-53
2021/08/02 10:33:56;;;;;;;6.20;2.60;;;;;;;31.72;38.92;99368.42;1712162;82;21014;-53
2021/08/02 10:36:24;;;;;;;9.78;2.47;;;;;;;31.81;38.81;99374.56;1704727;82;20986;-53
2021/08/02 10:38:53;;;;;;;10.08;3.20;;;;;;;31.91;38.70;99375.43;1703167;82;21009;-52
2021/08/02 10:41:32;;;;;;;5.40;2.62;;;;;;;32.01;38.65;99372.12;1704655;82;20963;-52
2021/08/02 10:44:15;;;;;;;16.17;3.60;;;;;;;32.10;38.39;99372.55;1706563;82;21359;-52
2021/08/02 10:46:41;;;;;;;6.22;2.10;;;;;;;32.10;37.86;99363.72;1715561;82;21666;-52
2021/08/02 10:49:11;;;;;;;6.35;2.70;;;;;;;31.98;38.03;99358.26;1714247;82;21009;-52
2021/08/02 10:51:54;;;;;;;7.95;2.75;;;;;;;31.89;37.68;99358.45;1701050;82;21449;-52
2021/08/02 10:54:21;;;;;;;2.90;1.95;;;;;;;31.87;37.86;99369.00;1703563;82;21488;-53
2021/08/02 10:56:48;;;;;;;4.00;2.02;;;;;;;31.88;37.02;99364.31;1725041;82;21406;-52
2021/08/02 10:59:17;;;;;;;6.22;1.80;;;;;;;31.85;37.10;99376.83;1725728;82;20978;-53
2021/08/02 11:01:53;;;;;;;4.83;1.90;;;;;;;31.86;36.72;99381.20;1714353;82;21571;-52
2021/08/02 11:04:21;;;;;;;3.22;1.65;;;;;;;31.86;37.06;99381.78;1720663;82;20942;-52
2021/08/02 11:06:52;;;;;;;3.45;1.77;;;;;;;31.86;37.08;99382.58;1713638;82;21041;-52
2021/08/02 11:09:31;;;;;;;1.65;1.55;;;;;;;31.80;36.65;99379.28;1694462;82;20950;-53
2021/08/02 11:12:13;;;;;;;3.15;1.98;;;;;;;31.77;37.10;99379.19;1704625;82;21014;-53
2021/08/02 11:14:48;;;;;;;2.87;1.60;;;;;;;31.73;37.27;99379.68;1703824;82;20974;-53
2021/08/02 11:17:25;;;;;;;5.70;1.80;;;;;;;31.72;37.44;99387.70;1711523;82;21846;-53
2021/08/02 11:20:01;;;;;;;5.33;1.65;;;;;;;31.70;37.34;99390.02;1703248;82;21007;-52
2021/08/02 11:22:28;;;;;;;3.80;1.37;;;;;;;31.67;37.22;99385.23;1700997;82;20982;-53
2021/08/02 11:24:59;;;;;;;4.60;1.55;;;;;;;31.59;37.44;99385.04;1702086;82;21014;-52
2021/08/02 11:27:26;;;;;;;4.85;1.85;;;;;;;31.60;37.57;99381.12;1716894;82;20994;-52
2021/08/02 11:29:54;;;;;;;2.42;1.25;;;;;;;31.59;37.08;99374.58;1713669;82;21061;-52
2021/08/02 11:32:22;;;;;;;5.12;1.65;;;;;;;31.51;36.67;99369.46;1710248;82;21026;-52
2021/08/02 11:34:55;;;;;;;2.22;1.70;;;;;;;31.45;37.03;99357.08;1705864;82;21457;-52
2021/08/02 11:37:25;;;;;;;3.12;1.77;;;;;;;31.40;37.55;99344.94;1714618;82;21097;-52
2021/08/02 11:40:08;;;;;;;4.12;2.33;;;;;;;31.30;38.15;99347.63;1709965;82;21504;-52